createdAt,value
2023-03-16T00:01:14.777Z,241.88
2023-03-16T00:05:17.907Z,242.05
2023-03-16T00:09:20.919Z,243.87
2023-03-16T00:13:25.762Z,236.70
2023-03-16T00:17:30.139Z,234.60
2023-03-16T00:21:35.230Z,271.70
2023-03-16T00:25:38.211Z,262.52
2023-03-16T00:29:46.861Z,265.93
2023-03-16T00:33:51.446Z,243.90
2023-03-16T00:37:57.370Z,238.52
2023-03-16T00:42:00.341Z,241.80
2023-03-16T00:46:06.912Z,246.98
2023-03-16T00:50:12.164Z,239.95
2023-03-16T00:54:15.333Z,246.65
2023-03-16T00:58:18.315Z,246.30
2023-03-16T01:02:23.697Z,248.80
2023-03-16T01:06:28.754Z,249.25
2023-03-16T04:58:22.783Z,233.80
2023-03-16T05:02:25.808Z,235.57
2023-03-16T05:06:29.038Z,238.20
2023-03-16T05:10:32.015Z,238.90
2023-03-16T05:14:36.459Z,242.40
2023-03-16T05:18:39.735Z,238.40
2023-03-16T05:22:43.449Z,237.80
2023-03-16T05:26:46.441Z,239.60
2023-03-16T05:30:51.658Z,238.75
2023-03-16T05:34:54.649Z,239.80
2023-03-16T05:38:59.678Z,238.23
2023-03-16T05:43:02.674Z,237.75
2023-03-16T05:47:07.317Z,239.63
2023-03-16T05:51:10.501Z,236.20
2023-03-16T05:55:16.601Z,235.32
2023-03-16T05:59:19.901Z,233.20
2023-03-16T06:03:24.270Z,236.98
2023-03-16T06:07:32.553Z,232.47
2023-03-16T06:11:35.527Z,240.95
2023-03-16T06:15:38.462Z,246.80
2023-03-16T06:19:42.797Z,253.40
2023-03-16T06:23:45.954Z,254.93
2023-03-16T06:27:49.531Z,250.30
2023-03-16T06:31:52.855Z,252.30
2023-03-16T06:35:57.319Z,242.83
2023-03-16T06:40:00.316Z,242.95
2023-03-16T06:44:03.739Z,239.05
2023-03-16T06:48:09.851Z,235.02
2023-03-16T06:52:14.816Z,235.88
2023-03-16T07:00:21.626Z,232.60
2023-03-16T07:04:24.768Z,232.70
2023-03-16T07:08:29.234Z,242.05
2023-03-16T07:12:32.222Z,234.30
2023-03-16T07:16:35.386Z,236.93
2023-03-16T07:20:38.367Z,236.77
2023-03-16T07:24:44.203Z,253.15
2023-03-16T07:28:48.262Z,239.18
2023-03-16T07:32:51.626Z,232.00
2023-03-16T07:36:54.667Z,236.70
2023-03-16T07:41:00.121Z,235.35
2023-03-16T07:45:03.398Z,235.20
2023-03-16T07:49:06.386Z,234.77
2023-03-16T07:53:09.477Z,257.50
2023-03-16T07:57:13.922Z,252.52
2023-03-16T08:01:17.911Z,242.63
2023-03-16T08:05:21.305Z,251.73
2023-03-16T08:09:24.310Z,240.98
2023-03-16T08:13:28.761Z,240.45
2023-03-16T08:21:40.103Z,254.65
2023-03-16T08:25:53.737Z,252.52
2023-03-16T08:29:58.314Z,251.23
2023-03-16T08:34:01.333Z,252.52
2023-03-16T08:38:04.343Z,248.00
2023-03-16T08:42:08.711Z,246.83
2023-03-16T08:50:16.584Z,245.97
2023-03-16T08:58:22.740Z,247.50
2023-03-16T09:02:27.353Z,249.30
2023-03-16T09:06:30.514Z,242.15
2023-03-16T09:10:33.745Z,243.35
2023-03-16T09:14:38.534Z,246.00
2023-03-16T09:18:43.355Z,240.40
2023-03-16T09:22:46.970Z,240.35
2023-03-16T09:26:50.569Z,228.70
2023-03-16T09:30:54.979Z,205.75
2023-03-16T09:34:59.464Z,203.90
2023-03-16T09:39:03.640Z,205.80
2023-03-16T09:43:29.119Z,209.57
2023-03-16T09:47:36.252Z,208.00
2023-03-16T09:51:45.935Z,205.60
2023-03-16T09:55:54.253Z,206.00
2023-03-16T10:00:01.998Z,208.00
2023-03-16T10:04:18.015Z,204.20
2023-03-16T10:08:25.350Z,199.40
2023-03-16T10:12:33.072Z,199.45
2023-03-16T10:16:42.148Z,200.45
2023-03-16T10:20:46.683Z,202.35
2023-03-16T10:29:01.708Z,238.10
2023-03-16T10:33:19.795Z,223.82
2023-03-16T10:37:23.776Z,209.23
2023-03-16T10:41:32.082Z,194.50
2023-03-16T10:45:36.584Z,208.30
2023-03-16T10:49:42.165Z,205.20
2023-03-16T10:53:46.119Z,205.55
2023-03-16T10:57:53.657Z,205.35
2023-03-16T11:01:57.332Z,205.05
2023-03-16T11:06:02.364Z,203.10
2023-03-16T11:10:24.973Z,203.15
2023-03-16T11:14:30.182Z,202.30
2023-03-16T11:18:36.881Z,203.60
2023-03-16T11:22:40.886Z,203.27
2023-03-16T11:26:48.833Z,201.80
2023-03-16T11:31:04.925Z,202.85
2023-03-16T11:35:16.567Z,200.90
2023-03-16T11:39:32.292Z,202.15
2023-03-16T11:43:50.515Z,199.07
2023-03-16T11:48:16.357Z,198.70
2023-03-16T11:52:32.031Z,200.30
2023-03-16T11:56:40.562Z,199.60
2023-03-16T12:00:53.644Z,198.48
2023-03-16T12:05:11.678Z,199.18
2023-03-16T12:09:44.505Z,197.03
2023-03-16T12:14:02.343Z,191.30
2023-03-16T12:18:13.863Z,196.40
2023-03-16T12:22:22.821Z,192.60
2023-03-16T12:26:30.356Z,194.90
2023-03-16T12:30:42.626Z,191.93
2023-03-16T12:34:50.290Z,182.30
2023-03-16T12:39:02.142Z,172.02
2023-03-16T12:43:22.444Z,176.00
2023-03-16T12:47:32.993Z,180.63
2023-03-16T12:51:37.078Z,179.07
2023-03-16T12:55:46.259Z,171.80
2023-03-16T12:59:55.531Z,176.95
2023-03-16T13:04:04.072Z,176.40
2023-03-16T13:08:09.539Z,172.82
2023-03-16T13:12:26.025Z,168.85
2023-03-16T13:24:40.032Z,228.97
2023-03-16T13:28:48.119Z,237.20
2023-03-16T13:32:55.080Z,219.35
2023-03-16T13:37:01.525Z,232.25
2023-03-16T13:41:10.041Z,220.30
2023-03-16T13:45:16.599Z,216.20
2023-03-16T13:49:19.949Z,219.35
2023-03-16T13:53:25.623Z,219.20
2023-03-16T13:57:31.859Z,190.88
2023-03-16T14:01:36.280Z,215.23
2023-03-16T14:05:40.842Z,223.30
2023-03-16T14:09:43.898Z,225.30
2023-03-16T14:13:53.581Z,227.70
2023-03-16T14:18:13.964Z,229.50
2023-03-16T14:22:19.280Z,228.00
2023-03-16T14:26:22.797Z,216.50
2023-03-16T14:30:28.059Z,218.15
2023-03-16T14:34:36.283Z,223.70
2023-03-16T14:38:41.647Z,211.80
2023-03-16T14:42:44.903Z,198.07
2023-03-16T14:46:48.307Z,221.03
2023-03-16T14:50:58.542Z,225.70
2023-03-16T14:55:03.614Z,215.70
2023-03-16T14:59:06.762Z,218.47
2023-03-16T15:03:15.064Z,203.30
2023-03-16T15:07:26.308Z,164.50
2023-03-16T15:11:31.781Z,157.95
2023-03-16T15:15:35.598Z,169.27
2023-03-16T15:19:38.635Z,172.90
2023-03-16T15:23:44.009Z,171.18
2023-03-16T15:31:53.385Z,233.30
2023-03-16T15:36:04.053Z,224.95
2023-03-16T15:40:17.790Z,223.10
2023-03-16T15:44:21.244Z,224.50
2023-03-16T15:48:25.484Z,229.33
2023-03-16T15:52:33.718Z,224.00
2023-03-16T15:56:53.149Z,231.83
2023-03-16T16:00:58.146Z,231.10
2023-03-16T16:05:01.366Z,235.00
2023-03-16T16:09:04.527Z,238.10
2023-03-16T16:13:14.365Z,239.80
2023-03-16T16:17:29.516Z,240.30
2023-03-16T16:21:39.828Z,240.45
2023-03-16T16:25:43.457Z,238.10
2023-03-16T16:29:47.909Z,224.00
2023-03-16T16:33:51.020Z,207.85
2023-03-16T16:37:54.279Z,221.40
2023-03-16T16:42:00.560Z,227.10
2023-03-16T16:46:14.065Z,231.70
2023-03-16T16:50:20.893Z,234.30
2023-03-16T16:54:27.085Z,240.35
2023-03-16T16:58:30.089Z,206.83
2023-03-16T17:02:43.517Z,209.90
2023-03-16T17:06:48.015Z,204.80
2023-03-16T17:10:52.023Z,207.70
2023-03-16T17:14:55.063Z,202.27
2023-03-16T17:18:59.976Z,202.57
2023-03-16T17:23:03.468Z,195.20
2023-03-16T17:27:06.676Z,200.15
2023-03-16T17:31:11.821Z,198.17
2023-03-16T17:35:16.901Z,202.77
2023-03-16T17:39:21.963Z,206.30
2023-03-16T17:43:25.440Z,207.30
2023-03-16T17:47:31.278Z,207.53
2023-03-16T17:51:39.857Z,203.93
2023-03-16T17:55:45.047Z,204.80
2023-03-16T17:59:48.607Z,206.37
2023-03-16T18:03:51.627Z,207.50
2023-03-16T18:08:08.002Z,210.20
2023-03-16T18:12:11.142Z,207.10
2023-03-16T18:16:19.969Z,207.50
2023-03-16T18:20:32.982Z,207.30
2023-03-16T18:24:37.652Z,211.75
2023-03-16T18:28:42.470Z,214.05
2023-03-16T18:32:55.682Z,213.03
2023-03-16T18:37:00.813Z,212.77
2023-03-16T18:41:16.680Z,212.03
2023-03-16T18:45:32.823Z,214.10
2023-03-16T18:49:47.410Z,214.10
2023-03-16T18:53:58.549Z,211.60
2023-03-16T18:58:03.148Z,212.33
2023-03-16T19:02:10.040Z,211.53
2023-03-16T19:06:19.945Z,207.20
2023-03-16T19:10:26.055Z,206.75
2023-03-16T19:14:33.357Z,206.95
2023-03-16T19:18:42.099Z,207.37
2023-03-16T19:22:46.492Z,207.07
2023-03-16T19:26:49.912Z,206.23
2023-03-16T19:30:54.989Z,208.70
2023-03-16T19:34:57.981Z,206.97
2023-03-16T19:39:01.108Z,210.00
2023-03-16T19:43:04.108Z,207.90
2023-03-16T19:47:21.265Z,208.20
2023-03-16T19:51:25.468Z,208.70
2023-03-16T19:55:32.290Z,209.83
2023-03-16T19:59:36.865Z,208.30
2023-03-16T20:03:41.234Z,209.00
2023-03-16T21:16:55.562Z,239.90
2023-03-16T21:20:59.021Z,241.60
2023-03-16T21:25:03.441Z,241.25
2023-03-16T21:29:09.270Z,242.05
2023-03-16T21:33:20.796Z,241.10
2023-03-16T21:37:24.989Z,237.60
2023-03-16T21:41:29.401Z,239.10
2023-03-16T21:45:33.680Z,238.95
2023-03-16T21:49:43.409Z,235.70
2023-03-16T21:54:01.905Z,239.17
2023-03-16T21:58:06.323Z,235.80
2023-03-16T22:02:20.048Z,236.80
2023-03-16T22:06:28.634Z,238.80
2023-03-16T22:10:46.618Z,238.50
2023-03-16T22:14:51.006Z,237.25
2023-03-16T22:18:57.982Z,237.27
2023-03-16T22:23:01.395Z,238.00
2023-03-16T22:27:05.704Z,236.80
2023-03-16T22:47:47.898Z,242.80
2023-03-16T22:55:56.312Z,241.30
2023-03-16T23:24:31.677Z,241.25
2023-03-16T23:28:34.913Z,240.10
2023-03-16T23:32:38.968Z,241.70
2023-03-16T23:36:44.296Z,241.40
2023-03-16T23:44:51.824Z,240.95
2023-03-16T23:48:57.067Z,240.65
2023-03-16T23:53:03.057Z,240.20
2023-03-16T23:57:06.148Z,239.35
